Terminal Aerodrome Forecast
Issued by NWS Melbourne, FL

Home | Current Version | Previous Version | Text Only | Print | Product List | Glossary On
Versions: 1 2 3 4 5 6 7 8 9 10 11 12 13 14 15 16 17 18 19 20 21 22 23 24 25
000
FTUS42 KMLB 242000 AAB
TAFMCO
TAF AMD
KMCO 242051Z 2421/2518 24012KT P6SM VCTS BKN040CB BKN100
      TEMPO 2421/2422 VRB15G23KT 2SM TSRA BKN015CB OVC030
     FM242300 18004KT P6SM SCT050 BKN120
     FM250700 22003KT P6SM FEW004
     FM251500 18005KT P6SM SCT030=

USA.gov is the U.S. government's official web portal to all federal, state and local government web resources and services.